Chester, South Dakota
Current Conditions -  °F | °C
As of 1:15 AM on Saturday 25 Oct 2014 (Local Time) from KMDS Reporting Station
Clear Clear  
Wind Chill: 54°   Ceiling: Unl
Heat Index: 54°   Visibility: 10mi
Dew Point: 39°   Wind: 10mph
Humidity: 58%   Direction: 350°N
Pressure: 30.04"   Gusts: NA
Location:  43.89°N, 96.93°W
Report Text: KMDS 250615Z AUTO 35009KT 10SM CLR 12/04 A3004 RMK AO2
Loading
Personal Weather Stations






























Interactive Weather Map
Tropical Storm Tracking
New forecast layout! Learn more

10-Day Weather Forecast

Advertisements
Track Severe Weather on mobile